Time,TemperatureF,DewpointF,PressureIn,WindDirection,WindDirectionDegrees,WindSpeedMPH,WindSpeedGustMPH,Humidity,HourlyPrecipIn,Conditions,Clouds,dailyrainin,SolarRadiationWatts/m^2,SoftwareType,DateUTC
2013-03-09 00:00:00,40.1,25.2,30.31,NE,36,3.5,3.5,55,0.00,CLR,,0.00,0.0,WeatherDisplay:10.37,2013-03-09 05:00:00,
2013-03-09 00:05:00,40.5,25.1,30.31,NE,37,2.3,0.0,54,0.00,CLR,,0.00,0.0,WeatherDisplay:10.37,2013-03-09 05:05:00,
2013-03-09 00:10:00,40.6,24.8,30.31,NE,37,4.0,4.0,53,0.00,CLR,,0.00,0.0,WeatherDisplay:10.37,2013-03-09 05:10:00,
2013-03-09 00:15:00,40.7,24.4,30.31,NE,39,5.8,5.8,52,0.00,CLR,,0.00,0.0,WeatherDisplay:10.37,2013-03-09 05:15:00,
2013-03-09 00:20:00,40.9,25.5,30.31,NE,41,5.8,5.8,54,0.00,CLR,,0.00,0.0,WeatherDisplay:10.37,2013-03-09 05:20:00,
2013-03-09 00:25:00,41.3,26.3,30.31,NE,43,6.0,6.0,55,0.00,CLR,,0.00,0.0,WeatherDisplay:10.37,2013-03-09 05:25:00,
2013-03-09 00:30:00,41.8,25.9,30.31,ENE,67,6.0,6.0,53,0.00,CLR,,0.00,0.0,WeatherDisplay:10.37,2013-03-09 05:30:00,
2013-03-09 00:35:00,42.4,26.5,30.31,ENE,76,5.0,5.0,53,0.00,CLR,,0.00,0.0,WeatherDisplay:10.37,2013-03-09 05:35:00,
2013-03-09 00:40:00,43.0,27.0,30.31,ENE,65,11.5,11.5,53,0.00,CLR,,0.00,0.0,WeatherDisplay:10.37,2013-03-09 05:40:00,
2013-03-09 00:45:00,43.7,27.2,30.30,ENE,71,10.4,10.4,52,0.00,CLR,,0.00,0.0,WeatherDisplay:10.37,2013-03-09 05:45:00,
2013-03-09 00:50:00,44.1,27.1,30.30,ENE,67,10.0,10.0,51,0.00,CLR,,0.00,0.0,WeatherDisplay:10.37,2013-03-09 05:50:00,
2013-03-09 00:55:00,44.6,27.6,30.31,ENE,66,9.2,9.2,51,0.00,CLR,,0.00,0.0,WeatherDisplay:10.37,2013-03-09 05:55:00,
2013-03-09 01:00:00,45.0,27.5,30.31,ENE,63,11.0,11.0,50,0.00,CLR,,0.00,0.0,WeatherDisplay:10.37,2013-03-09 06:00:00,
2013-03-09 01:05:00,45.6,27.5,30.31,ENE,65,9.2,9.2,49,0.00,CLR,,0.00,0.0,WeatherDisplay:10.37,2013-03-09 06:05:00,
2013-03-09 01:10:00,46.0,27.9,30.31,ENE,66,9.2,9.2,49,0.00,CLR,,0.00,0.0,WeatherDisplay:10.37,2013-03-09 06:10:00,
2013-03-09 01:15:00,46.1,28.0,30.31,ENE,67,7.0,7.0,49,0.00,CLR,,0.00,0.0,WeatherDisplay:10.37,2013-03-09 06:15:00,
2013-03-09 01:20:00,46.1,28.0,30.31,ENE,67,5.8,5.8,49,0.00,CLR,,0.00,0.0,WeatherDisplay:10.37,2013-03-09 06:20:00,
2013-03-09 01:25:00,46.0,27.9,30.32,ENE,67,5.8,5.8,49,0.00,CLR,,0.00,0.0,WeatherDisplay:10.37,2013-03-09 06:25:00,
2013-03-09 01:30:00,45.9,27.8,30.32,ENE,67,4.0,4.0,49,0.00,CLR,,0.00,0.0,WeatherDisplay:10.37,2013-03-09 06:30:00,
2013-03-09 01:35:00,45.7,27.6,30.32,ENE,67,4.6,4.6,49,0.00,CLR,,0.00,0.0,WeatherDisplay:10.37,2013-03-09 06:35:00,
2013-03-09 01:40:00,45.6,27.5,30.32,ENE,67,4.6,4.6,49,0.00,CLR,,0.00,0.0,WeatherDisplay:10.37,2013-03-09 06:40:00,
2013-03-09 01:45:00,45.4,27.3,30.32,ENE,67,3.5,3.5,49,0.00,CLR,,0.00,0.0,WeatherDisplay:10.37,2013-03-09 06:45:00,
2013-03-09 01:50:00,45.4,27.8,30.32,ENE,67,3.5,3.5,50,0.00,CLR,,0.00,0.0,WeatherDisplay:10.37,2013-03-09 06:50:00,
2013-03-09 01:55:00,45.3,27.7,30.32,ENE,67,5.8,5.8,50,0.00,CLR,,0.00,0.0,WeatherDisplay:10.37,2013-03-09 06:55:00,
2013-03-09 02:00:00,45.1,28.0,30.32,ENE,68,3.5,3.5,51,0.00,CLR,,0.00,0.0,WeatherDisplay:10.37,2013-03-09 07:00:00,
2013-03-09 02:05:00,44.9,28.3,30.32,ENE,76,5.8,5.8,52,0.00,CLR,,0.00,0.0,WeatherDisplay:10.37,2013-03-09 07:05:00,
2013-03-09 02:10:00,44.8,28.7,30.32,East,86,6.9,6.9,53,0.00,CLR,,0.00,0.0,WeatherDisplay:10.37,2013-03-09 07:10:00,
2013-03-09 02:15:00,44.5,28.4,30.31,East,82,6.9,6.9,53,0.00,CLR,,0.00,0.0,WeatherDisplay:10.37,2013-03-09 07:15:00,
2013-03-09 02:20:00,44.3,28.2,30.31,East,82,6.9,6.9,53,0.00,CLR,,0.00,0.0,WeatherDisplay:10.37,2013-03-09 07:20:00,
2013-03-09 02:25:00,44.3,28.2,30.31,East,79,6.9,6.9,53,0.00,CLR,,0.00,0.0,WeatherDisplay:10.37,2013-03-09 07:25:00,
2013-03-09 02:30:00,44.3,28.2,30.31,ENE,78,6.9,6.9,53,0.00,CLR,,0.00,0.0,WeatherDisplay:10.37,2013-03-09 07:30:00,
2013-03-09 02:35:00,44.2,28.1,30.31,ENE,76,5.8,5.8,53,0.00,CLR,,0.00,0.0,WeatherDisplay:10.37,2013-03-09 07:35:00,
2013-03-09 02:40:00,44.2,28.6,30.31,ENE,73,6.9,6.9,54,0.00,CLR,,0.00,0.0,WeatherDisplay:10.37,2013-03-09 07:40:00,
2013-03-09 02:45:00,44.1,28.5,30.30,ENE,74,7.0,7.0,54,0.00,CLR,,0.00,0.0,WeatherDisplay:10.37,2013-03-09 07:45:00,
2013-03-09 02:50:00,43.8,27.8,30.30,ENE,76,8.1,8.1,53,0.00,CLR,,0.00,0.0,WeatherDisplay:10.37,2013-03-09 07:50:00,
2013-03-09 02:55:00,43.9,27.9,30.30,ENE,76,6.9,6.9,53,0.00,CLR,,0.00,0.0,WeatherDisplay:10.37,2013-03-09 07:55:00,
2013-03-09 03:00:00,43.9,27.9,30.30,ENE,70,7.0,7.0,53,0.00,CLR,,0.00,0.0,WeatherDisplay:10.37,2013-03-09 08:00:00,
2013-03-09 03:05:00,43.8,27.3,30.30,ENE,75,5.8,5.8,52,0.00,CLR,,0.00,0.0,WeatherDisplay:10.37,2013-03-09 08:05:00,
2013-03-09 03:10:00,43.8,27.3,30.30,ENE,75,7.0,7.0,52,0.00,CLR,,0.00,0.0,WeatherDisplay:10.37,2013-03-09 08:10:00,
2013-03-09 03:15:00,43.7,26.7,30.30,ENE,76,5.8,5.8,51,0.00,CLR,,0.00,0.0,WeatherDisplay:10.37,2013-03-09 08:15:00,
2013-03-09 03:21:00,43.6,26.6,30.30,ENE,77,5.8,5.8,51,0.00,CLR,,0.00,0.0,WeatherDisplay:10.37,2013-03-09 08:21:00,
2013-03-09 03:26:00,43.5,26.6,30.30,ENE,77,6.9,6.9,51,0.00,CLR,,0.00,0.0,WeatherDisplay:10.37,2013-03-09 08:26:00,
2013-03-09 03:31:00,43.3,26.4,30.30,ENE,78,9.2,9.2,51,0.00,CLR,,0.00,0.0,WeatherDisplay:10.37,2013-03-09 08:31:00,
2013-03-09 03:36:00,43.2,26.7,30.30,ENE,78,5.8,5.8,52,0.00,CLR,,0.00,0.0,WeatherDisplay:10.37,2013-03-09 08:36:00,
2013-03-09 03:41:00,43.0,26.1,30.30,East,80,6.9,6.9,51,0.00,CLR,,0.00,0.0,WeatherDisplay:10.37,2013-03-09 08:41:00,
2013-03-09 03:46:00,42.9,26.5,30.30,East,80,4.6,4.6,52,0.00,CLR,,0.00,0.0,WeatherDisplay:10.37,2013-03-09 08:46:00,
2013-03-09 03:51:00,42.8,25.9,30.29,East,80,9.2,9.2,51,0.00,CLR,,0.00,0.0,WeatherDisplay:10.37,2013-03-09 08:51:00,
2013-03-09 03:56:00,42.6,26.6,30.30,East,82,9.2,9.2,53,0.00,CLR,,0.00,0.0,WeatherDisplay:10.37,2013-03-09 08:56:00,
2013-03-09 04:01:00,42.4,26.0,30.30,East,79,6.9,6.9,52,0.00,CLR,,0.00,0.0,WeatherDisplay:10.37,2013-03-09 09:01:00,
2013-03-09 04:06:00,42.3,25.4,30.30,ENE,78,4.0,4.0,51,0.00,CLR,,0.00,0.0,WeatherDisplay:10.37,2013-03-09 09:06:00,
2013-03-09 04:11:00,42.3,25.4,30.30,ENE,78,4.6,4.6,51,0.00,CLR,,0.00,0.0,WeatherDisplay:10.37,2013-03-09 09:11:00,
2013-03-09 04:16:00,42.2,25.8,30.30,ENE,78,6.9,6.9,52,0.00,CLR,,0.00,0.0,WeatherDisplay:10.37,2013-03-09 09:16:00,
2013-03-09 04:21:00,42.1,25.7,30.29,ENE,76,6.9,6.9,52,0.00,CLR,,0.00,0.0,WeatherDisplay:10.37,2013-03-09 09:21:00,
2013-03-09 04:26:00,42.0,25.6,30.30,ENE,74,10.4,10.4,52,0.00,CLR,,0.00,0.0,WeatherDisplay:10.37,2013-03-09 09:26:00,
2013-03-09 04:31:00,42.0,25.6,30.30,ENE,74,6.9,6.9,52,0.00,CLR,,0.00,0.0,WeatherDisplay:10.37,2013-03-09 09:31:00,
2013-03-09 04:36:00,41.9,25.5,30.29,ENE,74,7.0,7.0,52,0.00,CLR,,0.00,0.0,WeatherDisplay:10.37,2013-03-09 09:36:00,
2013-03-09 04:41:00,41.8,25.4,30.30,ENE,74,5.8,5.8,52,0.00,CLR,,0.00,0.0,WeatherDisplay:10.37,2013-03-09 09:41:00,
2013-03-09 04:46:00,41.8,25.0,30.30,ENE,74,9.2,9.2,51,0.00,CLR,,0.00,0.0,WeatherDisplay:10.37,2013-03-09 09:46:00,
2013-03-09 04:51:00,41.8,25.0,30.30,ENE,74,7.0,7.0,51,0.00,CLR,,0.00,0.0,WeatherDisplay:10.37,2013-03-09 09:51:00,
2013-03-09 04:56:00,41.9,25.1,30.30,ENE,74,4.0,4.0,51,0.00,CLR,,0.00,0.0,WeatherDisplay:10.37,2013-03-09 09:56:00,
2013-03-09 05:01:00,41.9,25.1,30.30,ENE,74,6.9,6.9,51,0.00,CLR,,0.00,0.0,WeatherDisplay:10.37,2013-03-09 10:01:00,
2013-03-09 05:06:00,42.0,25.2,30.30,ENE,74,4.6,4.6,51,0.00,CLR,,0.00,0.0,WeatherDisplay:10.37,2013-03-09 10:06:00,
2013-03-09 05:11:00,42.0,25.2,30.31,ENE,74,4.6,4.6,51,0.00,CLR,,0.00,0.0,WeatherDisplay:10.37,2013-03-09 10:11:00,
2013-03-09 05:16:00,42.1,25.3,30.30,ENE,72,6.0,6.0,51,0.00,CLR,,0.00,0.0,WeatherDisplay:10.37,2013-03-09 10:16:00,
2013-03-09 05:21:00,42.1,24.8,30.31,ENE,71,5.0,5.0,50,0.00,CLR,,0.00,0.0,WeatherDisplay:10.37,2013-03-09 10:21:00,
2013-03-09 05:26:00,42.2,24.9,30.31,ENE,71,6.9,6.9,50,0.00,CLR,,0.00,0.0,WeatherDisplay:10.37,2013-03-09 10:26:00,
2013-03-09 05:31:00,42.1,24.8,30.31,ENE,71,4.6,4.6,50,0.00,CLR,,0.00,0.0,WeatherDisplay:10.37,2013-03-09 10:31:00,
2013-03-09 05:36:00,42.2,24.9,30.31,ENE,71,5.0,5.0,50,0.00,CLR,,0.00,0.0,WeatherDisplay:10.37,2013-03-09 10:36:00,
2013-03-09 05:41:00,42.2,24.9,30.31,ENE,71,5.8,5.8,50,0.00,CLR,,0.00,0.0,WeatherDisplay:10.37,2013-03-09 10:41:00,
2013-03-09 05:46:00,42.3,25.0,30.31,ENE,71,5.8,5.8,50,0.00,CLR,,0.00,0.0,WeatherDisplay:10.37,2013-03-09 10:46:00,
2013-03-09 05:51:00,42.3,25.0,30.31,ENE,71,6.9,6.9,50,0.00,CLR,,0.00,0.0,WeatherDisplay:10.37,2013-03-09 10:51:00,
2013-03-09 05:56:00,42.3,25.0,30.31,ENE,71,4.6,4.6,50,0.00,CLR,,0.00,0.0,WeatherDisplay:10.37,2013-03-09 10:56:00,
2013-03-09 06:01:00,42.4,25.1,30.31,ENE,70,4.6,4.6,50,0.00,CLR,,0.00,0.0,WeatherDisplay:10.37,2013-03-09 11:01:00,
2013-03-09 06:06:00,42.4,24.6,30.31,ENE,71,5.8,5.8,49,0.00,CLR,,0.00,0.0,WeatherDisplay:10.37,2013-03-09 11:06:00,
2013-03-09 06:11:00,42.5,24.7,30.32,ENE,71,5.8,5.8,49,0.00,CLR,,0.00,0.0,WeatherDisplay:10.37,2013-03-09 11:11:00,
2013-03-09 06:16:00,42.5,24.7,30.32,ENE,70,6.0,6.0,49,0.00,CLR,,0.00,0.0,WeatherDisplay:10.37,2013-03-09 11:16:00,
2013-03-09 06:21:00,42.5,24.7,30.33,ENE,70,3.5,3.5,49,0.00,CLR,,0.00,0.0,WeatherDisplay:10.37,2013-03-09 11:21:00,
2013-03-09 06:26:00,42.4,24.6,30.33,ENE,70,4.6,4.6,49,0.00,CLR,,0.00,0.0,WeatherDisplay:10.37,2013-03-09 11:26:00,
2013-03-09 06:31:00,42.4,24.1,30.33,ENE,70,5.0,5.0,48,0.00,CLR,,0.00,0.0,WeatherDisplay:10.37,2013-03-09 11:31:00,
2013-03-09 06:36:00,42.5,24.2,30.33,ENE,70,3.5,3.5,48,0.00,CLR,,0.00,0.0,WeatherDisplay:10.37,2013-03-09 11:36:00,
2013-03-09 06:41:00,42.3,24.5,30.33,ENE,70,3.5,3.5,49,0.00,CLR,,0.00,0.0,WeatherDisplay:10.37,2013-03-09 11:41:00,
2013-03-09 06:46:00,42.1,24.8,30.33,ENE,70,3.5,3.5,50,0.00,CLR,,0.00,0.0,WeatherDisplay:10.37,2013-03-09 11:46:00,
2013-03-09 06:51:00,41.9,24.1,30.33,ENE,70,3.5,3.5,49,0.00,CLR,,0.00,0.0,WeatherDisplay:10.37,2013-03-09 11:51:00,
2013-03-09 06:56:00,41.7,24.4,30.33,ENE,70,3.5,3.5,50,0.00,CLR,,0.00,5.0,WeatherDisplay:10.37,2013-03-09 11:56:00,
2013-03-09 07:01:00,41.5,24.2,30.34,ENE,71,3.5,3.5,50,0.00,CLR,,0.00,11.0,WeatherDisplay:10.37,2013-03-09 12:01:00,
2013-03-09 07:06:00,41.4,24.6,30.34,ENE,70,3.5,3.5,51,0.00,CLR,,0.00,16.0,WeatherDisplay:10.37,2013-03-09 12:06:00,
2013-03-09 07:11:00,41.3,24.5,30.34,ENE,71,3.5,3.5,51,0.00,CLR,,0.00,26.0,WeatherDisplay:10.37,2013-03-09 12:11:00,
2013-03-09 07:16:00,41.2,24.9,30.35,ENE,70,0.0,0.0,52,0.00,CLR,,0.00,33.0,WeatherDisplay:10.37,2013-03-09 12:16:00,
2013-03-09 07:21:00,41.1,25.7,30.35,ENE,70,0.0,0.0,54,0.00,CLR,,0.00,35.0,WeatherDisplay:10.37,2013-03-09 12:21:00,
2013-03-09 07:26:00,41.1,25.3,30.35,ENE,71,3.5,3.5,53,0.00,CLR,,0.00,46.0,WeatherDisplay:10.37,2013-03-09 12:26:00,
2013-03-09 07:31:00,41.1,25.3,30.35,ENE,71,3.5,3.5,53,0.00,CLR,,0.00,53.0,WeatherDisplay:10.37,2013-03-09 12:31:00,
2013-03-09 07:36:00,41.1,25.7,30.36,ENE,71,3.5,3.5,54,0.00,CLR,,0.00,58.0,WeatherDisplay:10.37,2013-03-09 12:36:00,
2013-03-09 07:41:00,41.2,27.1,30.35,ENE,71,3.5,3.5,57,0.00,CLR,,0.00,74.0,WeatherDisplay:10.37,2013-03-09 12:41:00,
2013-03-09 07:46:00,41.4,28.9,30.36,ENE,71,4.0,4.0,61,0.00,CLR,,0.00,84.0,WeatherDisplay:10.37,2013-03-09 12:46:00,
2013-03-09 07:51:00,41.5,27.4,30.36,ENE,71,3.5,3.5,57,0.00,CLR,,0.00,74.0,WeatherDisplay:10.37,2013-03-09 12:51:00,
2013-03-09 07:56:00,41.9,27.8,30.36,ENE,71,5.0,5.0,57,0.00,CLR,,0.00,84.0,WeatherDisplay:10.37,2013-03-09 12:56:00,
2013-03-09 08:01:00,42.4,28.7,30.36,ENE,71,6.0,6.0,58,0.00,OVC,,0.00,93.0,WeatherDisplay:10.37,2013-03-09 13:01:00,
2013-03-09 08:06:00,42.8,27.3,30.36,ENE,71,4.6,4.6,54,0.00,OVC,,0.00,105.0,WeatherDisplay:10.37,2013-03-09 13:06:00,
2013-03-09 08:11:00,43.3,27.8,30.36,ENE,71,4.0,4.0,54,0.00,OVC,,0.00,121.0,WeatherDisplay:10.37,2013-03-09 13:11:00,
2013-03-09 08:16:00,43.8,27.8,30.36,East,80,5.0,5.0,53,0.00,OVC,,0.00,135.0,WeatherDisplay:10.37,2013-03-09 13:16:00,
2013-03-09 08:21:00,44.3,28.2,30.36,East,82,6.9,6.9,53,0.00,OVC,,0.00,146.0,WeatherDisplay:10.37,2013-03-09 13:21:00,
2013-03-09 08:26:00,44.8,28.2,30.36,East,82,0.0,0.0,52,0.00,OVC,,0.00,174.0,WeatherDisplay:10.37,2013-03-09 13:26:00,
2013-03-09 08:31:00,45.2,27.6,30.36,East,82,6.9,6.9,50,0.00,OVC,,0.00,169.0,WeatherDisplay:10.37,2013-03-09 13:31:00,
2013-03-09 08:36:00,45.5,28.4,30.37,East,82,0.0,0.0,51,0.00,OVC,,0.00,195.0,WeatherDisplay:10.37,2013-03-09 13:36:00,
2013-03-09 08:41:00,45.9,27.3,30.36,East,92,10.4,10.4,48,0.00,OVC,,0.00,188.0,WeatherDisplay:10.37,2013-03-09 13:41:00,
2013-03-09 08:46:00,46.1,28.0,30.36,East,94,3.5,3.5,49,0.00,OVC,,0.00,223.0,WeatherDisplay:10.37,2013-03-09 13:46:00,
2013-03-09 08:51:00,46.5,28.3,30.36,ESE,103,10.4,10.4,49,0.00,OVC,,0.00,323.0,WeatherDisplay:10.37,2013-03-09 13:51:00,
2013-03-09 08:56:00,46.7,27.5,30.36,ESE,106,9.2,9.2,47,0.00,OVC,,0.00,309.0,WeatherDisplay:10.37,2013-03-09 13:56:00,
2013-03-09 09:01:00,46.9,27.2,30.37,East,101,4.6,4.6,46,0.00,OVC,,0.00,309.0,WeatherDisplay:10.37,2013-03-09 14:01:00,
2013-03-09 09:06:00,47.0,27.3,30.36,East,96,5.8,5.8,46,0.00,OVC,,0.00,297.0,WeatherDisplay:10.37,2013-03-09 14:06:00,
2013-03-09 09:11:00,46.9,26.6,30.37,East,101,6.9,6.9,45,0.00,OVC,,0.00,220.0,WeatherDisplay:10.37,2013-03-09 14:11:00,
2013-03-09 09:16:00,46.9,27.2,30.37,East,101,6.9,6.9,46,0.00,OVC,,0.00,243.0,WeatherDisplay:10.37,2013-03-09 14:16:00,
2013-03-09 09:21:00,46.9,27.7,30.37,East,101,3.5,0.0,47,0.00,OVC,,0.00,308.0,WeatherDisplay:10.37,2013-03-09 14:21:00,
2013-03-09 09:26:00,47.1,28.4,30.37,East,101,5.8,5.8,48,0.00,OVC,,0.00,432.0,WeatherDisplay:10.37,2013-03-09 14:26:00,
2013-03-09 09:31:00,47.5,28.8,30.36,East,101,3.5,3.5,48,0.00,OVC,,0.00,290.0,WeatherDisplay:10.37,2013-03-09 14:31:00,
2013-03-09 09:36:00,47.7,28.9,30.37,East,101,4.6,4.6,48,0.00,OVC,,0.00,267.0,WeatherDisplay:10.37,2013-03-09 14:36:00,
2013-03-09 09:41:00,47.8,28.0,30.36,ESE,105,8.1,8.1,46,0.00,OVC,,0.00,387.0,WeatherDisplay:10.37,2013-03-09 14:41:00,
2013-03-09 09:46:00,47.8,26.9,30.36,ESE,120,11.0,11.0,44,0.00,OVC,,0.00,480.0,WeatherDisplay:10.37,2013-03-09 14:46:00,
2013-03-09 09:51:00,47.9,29.6,30.36,ESE,118,10.0,10.0,49,0.00,OVC,,0.00,501.0,WeatherDisplay:10.37,2013-03-09 14:51:00,
2013-03-09 09:56:00,48.1,28.3,30.36,SE,124,11.5,11.5,46,0.00,OVC,,0.00,529.0,WeatherDisplay:10.37,2013-03-09 14:56:00,
2013-03-09 10:01:00,48.3,28.5,30.36,ESE,119,6.9,6.9,46,0.00,OVC,,0.00,538.0,WeatherDisplay:10.37,2013-03-09 15:01:00,
2013-03-09 10:07:00,48.5,28.6,30.36,ESE,115,11.5,11.5,46,0.00,OVC,,0.00,571.0,WeatherDisplay:10.37,2013-03-09 15:07:00,
2013-03-09 10:12:00,48.6,28.7,30.36,ESE,114,3.5,3.5,46,0.00,OVC,,0.00,582.0,WeatherDisplay:10.37,2013-03-09 15:12:00,
2013-03-09 10:17:00,48.9,28.5,30.36,East,95,9.0,9.0,45,0.00,OVC,,0.00,564.0,WeatherDisplay:10.37,2013-03-09 15:17:00,
2013-03-09 10:22:00,49.2,29.3,30.36,East,96,7.0,7.0,46,0.00,OVC,,0.00,599.0,WeatherDisplay:10.37,2013-03-09 15:22:00,
2013-03-09 10:27:00,49.5,29.6,30.36,East,94,10.0,10.0,46,0.00,OVC,,0.00,621.0,WeatherDisplay:10.37,2013-03-09 15:27:00,
2013-03-09 10:32:00,49.6,29.1,30.36,East,96,6.9,6.9,45,0.00,OVC,,0.00,554.0,WeatherDisplay:10.37,2013-03-09 15:32:00,
2013-03-09 10:37:00,49.9,29.4,30.35,ESE,112,9.2,9.2,45,0.00,OVC,,0.00,628.0,WeatherDisplay:10.37,2013-03-09 15:37:00,
2013-03-09 10:42:00,50.0,28.9,30.35,ESE,104,6.9,6.9,44,0.00,OVC,,0.00,643.0,WeatherDisplay:10.37,2013-03-09 15:42:00,
2013-03-09 10:47:00,50.3,29.7,30.34,East,98,6.9,6.9,45,0.00,OVC,,0.00,654.0,WeatherDisplay:10.37,2013-03-09 15:47:00,
2013-03-09 10:52:00,50.4,30.4,30.34,East,94,4.6,4.6,46,0.00,OVC,,0.00,666.0,WeatherDisplay:10.37,2013-03-09 15:52:00,
2013-03-09 10:57:00,51.1,31.6,30.34,SE,125,11.0,11.0,47,0.00,OVC,,0.00,680.0,WeatherDisplay:10.37,2013-03-09 15:57:00,
2013-03-09 11:02:00,51.7,29.3,30.34,ESE,117,9.0,9.0,42,0.00,OVC,,0.00,686.0,WeatherDisplay:10.37,2013-03-09 16:02:00,
2013-03-09 11:07:00,52.5,29.5,30.34,ESE,109,4.6,4.6,41,0.00,OVC,,0.00,700.0,WeatherDisplay:10.37,2013-03-09 16:07:00,
2013-03-09 11:12:00,52.8,29.1,30.35,East,101,8.1,8.1,40,0.00,OVC,,0.00,708.0,WeatherDisplay:10.37,2013-03-09 16:12:00,
2013-03-09 11:17:00,53.1,30.0,30.35,SE,132,4.0,4.7,41,0.00,OVC,,0.00,715.0,WeatherDisplay:10.37,2013-03-09 16:17:00,
2013-03-09 11:22:00,53.6,29.8,30.35,SSE,158,10.4,10.4,40,0.00,OVC,,0.00,728.0,WeatherDisplay:10.37,2013-03-09 16:22:00,
2013-03-09 11:27:00,53.9,30.7,30.34,SSE,163,5.0,5.0,41,0.00,OVC,,0.00,735.0,WeatherDisplay:10.37,2013-03-09 16:27:00,
2013-03-09 11:32:00,54.0,28.9,30.35,ESE,111,5.8,5.8,38,0.00,OVC,,0.00,744.0,WeatherDisplay:10.37,2013-03-09 16:32:00,
2013-03-09 11:37:00,54.1,30.3,30.34,ESE,102,9.0,9.0,40,0.00,OVC,,0.00,752.0,WeatherDisplay:10.37,2013-03-09 16:37:00,
2013-03-09 11:42:00,54.4,30.6,30.35,East,98,4.6,4.6,40,0.00,OVC,,0.00,756.0,WeatherDisplay:10.37,2013-03-09 16:42:00,
2013-03-09 11:47:00,55.0,30.5,30.34,SE,146,5.8,5.8,39,0.00,OVC,,0.00,770.0,WeatherDisplay:10.37,2013-03-09 16:47:00,
2013-03-09 11:52:00,55.3,31.4,30.34,SSE,157,6.9,6.9,40,0.00,OVC,,0.00,777.0,WeatherDisplay:10.37,2013-03-09 16:52:00,
2013-03-09 11:57:00,55.0,30.5,30.34,SSE,149,2.3,2.3,39,0.00,OVC,,0.00,788.0,WeatherDisplay:10.37,2013-03-09 16:57:00,
2013-03-09 12:02:00,55.5,30.9,30.34,South,173,8.1,8.1,39,0.00,CLR,,0.00,800.0,WeatherDisplay:10.37,2013-03-09 17:02:00,
2013-03-09 12:07:00,56.0,31.4,30.34,South,172,4.6,4.6,39,0.00,CLR,,0.00,840.0,WeatherDisplay:10.37,2013-03-09 17:07:00,
2013-03-09 12:12:00,56.5,31.8,30.34,South,172,9.0,9.0,39,0.00,CLR,,0.00,606.0,WeatherDisplay:10.37,2013-03-09 17:12:00,
2013-03-09 12:17:00,56.7,35.0,30.34,SSE,165,4.6,4.6,44,0.00,CLR,,0.00,965.0,WeatherDisplay:10.37,2013-03-09 17:17:00,
2013-03-09 12:22:00,57.0,31.6,30.34,SSE,157,1.2,1.2,38,0.00,CLR,,0.00,865.0,WeatherDisplay:10.37,2013-03-09 17:22:00,
2013-03-09 12:27:00,57.2,31.1,30.33,ESE,115,5.8,5.8,37,0.00,CLR,,0.00,608.0,WeatherDisplay:10.37,2013-03-09 17:27:00,
2013-03-09 12:32:00,57.5,34.0,30.33,SW,219,10.0,10.0,41,0.00,CLR,,0.00,608.0,WeatherDisplay:10.37,2013-03-09 17:32:00,
2013-03-09 12:37:00,57.0,32.9,30.33,SSW,213,3.5,3.5,40,0.00,CLR,,0.00,608.0,WeatherDisplay:10.37,2013-03-09 17:37:00,
2013-03-09 12:42:00,57.0,32.9,30.33,ESE,118,4.6,4.6,40,0.00,CLR,,0.00,889.0,WeatherDisplay:10.37,2013-03-09 17:42:00,
2013-03-09 12:47:00,57.1,33.0,30.32,ESE,113,3.5,3.5,40,0.00,CLR,,0.00,540.0,WeatherDisplay:10.37,2013-03-09 17:47:00,
2013-03-09 12:52:00,57.1,31.0,30.32,ESE,123,5.8,5.8,37,0.00,CLR,,0.00,557.0,WeatherDisplay:10.37,2013-03-09 17:52:00,
2013-03-09 12:57:00,57.1,31.0,30.32,ESE,123,0.0,0.0,37,0.00,CLR,,0.00,503.0,WeatherDisplay:10.37,2013-03-09 17:57:00,
2013-03-09 13:02:00,57.3,31.2,30.32,SE,124,0.0,0.0,37,0.00,CLR,,0.00,369.0,WeatherDisplay:10.37,2013-03-09 18:02:00,
2013-03-09 13:07:00,57.4,32.0,30.32,SE,124,0.0,0.0,38,0.00,CLR,,0.00,348.0,WeatherDisplay:10.37,2013-03-09 18:07:00,
2013-03-09 13:12:00,57.3,31.9,30.31,SE,136,6.9,6.9,38,0.00,CLR,,0.00,334.0,WeatherDisplay:10.37,2013-03-09 18:12:00,
2013-03-09 13:17:00,56.8,34.5,30.31,SW,219,5.8,5.8,43,0.00,CLR,,0.00,311.0,WeatherDisplay:10.37,2013-03-09 18:17:00,
2013-03-09 13:22:00,56.8,34.5,30.30,South,174,11.5,11.5,43,0.00,CLR,,0.00,367.0,WeatherDisplay:10.37,2013-03-09 18:22:00,
2013-03-09 13:27:00,56.6,33.2,30.30,South,177,6.9,6.9,41,0.00,CLR,,0.00,381.0,WeatherDisplay:10.37,2013-03-09 18:27:00,
2013-03-09 13:32:00,56.7,32.0,30.30,South,174,0.0,0.0,39,0.00,CLR,,0.00,399.0,WeatherDisplay:10.37,2013-03-09 18:32:00,
2013-03-09 13:37:00,56.9,33.4,30.29,South,174,3.5,3.5,41,0.00,CLR,,0.00,457.0,WeatherDisplay:10.37,2013-03-09 18:37:00,
2013-03-09 13:42:00,57.1,33.0,30.29,South,173,6.9,6.9,40,0.00,CLR,,0.00,413.0,WeatherDisplay:10.37,2013-03-09 18:42:00,
2013-03-09 13:47:00,57.2,33.7,30.29,South,173,3.5,3.5,41,0.00,CLR,,0.00,429.0,WeatherDisplay:10.37,2013-03-09 18:47:00,
2013-03-09 13:52:00,57.5,32.1,30.28,South,181,9.2,9.2,38,0.00,CLR,,0.00,446.0,WeatherDisplay:10.37,2013-03-09 18:52:00,
2013-03-09 13:57:00,57.3,33.2,30.28,SSE,159,9.2,9.2,40,0.00,CLR,,0.00,376.0,WeatherDisplay:10.37,2013-03-09 18:57:00,
2013-03-09 14:02:00,57.4,32.6,30.28,South,186,6.9,6.9,39,0.00,CLR,,0.00,346.0,WeatherDisplay:10.37,2013-03-09 19:02:00,
2013-03-09 14:07:00,57.5,32.1,30.28,South,182,6.9,6.9,38,0.00,CLR,,0.00,392.0,WeatherDisplay:10.37,2013-03-09 19:07:00,
2013-03-09 14:12:00,57.6,32.2,30.28,South,188,10.4,10.4,38,0.00,CLR,,0.00,476.0,WeatherDisplay:10.37,2013-03-09 19:12:00,
2013-03-09 14:17:00,57.6,34.1,30.28,SE,140,6.9,6.9,41,0.00,CLR,,0.00,485.0,WeatherDisplay:10.37,2013-03-09 19:17:00,
2013-03-09 14:22:00,57.9,34.9,30.28,SSE,167,6.9,6.9,42,0.00,CLR,,0.00,410.0,WeatherDisplay:10.37,2013-03-09 19:22:00,
2013-03-09 14:27:00,58.2,34.0,30.28,SSE,153,10.4,10.4,40,0.00,CLR,,0.00,517.0,WeatherDisplay:10.37,2013-03-09 19:27:00,
2013-03-09 14:32:00,58.1,32.6,30.27,SSE,157,9.2,9.2,38,0.00,FEW,,0.00,346.0,WeatherDisplay:10.37,2013-03-09 19:32:00,
2013-03-09 14:37:00,57.9,33.1,30.27,South,171,5.8,5.8,39,0.00,FEW,,0.00,394.0,WeatherDisplay:10.37,2013-03-09 19:37:00,
2013-03-09 14:42:00,58.0,31.8,30.27,SE,130,11.5,11.5,37,0.00,SCT,,0.00,304.0,WeatherDisplay:10.37,2013-03-09 19:42:00,
2013-03-09 14:47:00,58.1,33.9,30.27,SE,136,6.9,6.9,40,0.00,SCT,,0.00,294.0,WeatherDisplay:10.37,2013-03-09 19:47:00,
2013-03-09 14:52:00,57.9,34.3,30.27,SE,144,5.8,5.8,41,0.00,SCT,,0.00,287.0,WeatherDisplay:10.37,2013-03-09 19:52:00,
2013-03-09 14:57:00,57.7,34.1,30.27,SSE,149,6.9,6.9,41,0.00,SCT,,0.00,276.0,WeatherDisplay:10.37,2013-03-09 19:57:00,
2013-03-09 15:02:00,57.6,32.8,30.26,SSE,149,6.9,6.9,39,0.00,BKN,,0.00,248.0,WeatherDisplay:10.37,2013-03-09 20:02:00,
2013-03-09 15:07:00,57.4,33.3,30.27,SSE,148,3.5,0.0,40,0.00,BKN,,0.00,216.0,WeatherDisplay:10.37,2013-03-09 20:07:00,
2013-03-09 15:12:00,57.3,31.9,30.26,SSE,153,4.6,4.6,38,0.00,BKN,,0.00,195.0,WeatherDisplay:10.37,2013-03-09 20:12:00,
2013-03-09 15:17:00,57.2,32.4,30.26,SSE,153,6.9,6.9,39,0.00,BKN,,0.00,151.0,WeatherDisplay:10.37,2013-03-09 20:17:00,
2013-03-09 15:22:00,57.2,32.4,30.26,SSE,153,0.0,0.0,39,0.00,BKN,,0.00,120.0,WeatherDisplay:10.37,2013-03-09 20:22:00,
2013-03-09 15:27:00,57.0,32.9,30.26,SSE,153,5.8,5.8,40,0.00,BKN,,0.00,116.0,WeatherDisplay:10.37,2013-03-09 20:27:00,
2013-03-09 15:32:00,56.8,32.7,30.26,SSE,153,6.9,6.9,40,0.00,BKN,,0.00,134.0,WeatherDisplay:10.37,2013-03-09 20:32:00,
2013-03-09 15:37:00,56.8,32.1,30.26,SSE,153,5.8,5.8,39,0.00,BKN,,0.00,153.0,WeatherDisplay:10.37,2013-03-09 20:37:00,
2013-03-09 15:42:00,56.8,32.7,30.26,SSE,153,0.0,0.0,40,0.00,BKN,,0.00,163.0,WeatherDisplay:10.37,2013-03-09 20:42:00,
2013-03-09 15:47:00,56.9,32.2,30.26,SSE,153,4.6,4.6,39,0.00,BKN,,0.00,167.0,WeatherDisplay:10.37,2013-03-09 20:47:00,
2013-03-09 15:52:00,57.1,33.0,30.26,SSE,153,3.5,3.5,40,0.00,BKN,,0.00,174.0,WeatherDisplay:10.37,2013-03-09 20:52:00,
2013-03-09 15:57:00,57.2,33.1,30.27,SSE,153,0.0,0.6,40,0.00,BKN,,0.00,192.0,WeatherDisplay:10.37,2013-03-09 20:57:00,
2013-03-09 16:02:00,57.1,34.8,30.27,SSE,153,3.5,3.5,43,0.00,BKN,,0.00,195.0,WeatherDisplay:10.37,2013-03-09 21:02:00,
2013-03-09 16:07:00,56.8,33.9,30.27,SSE,153,2.0,2.0,42,0.00,BKN,,0.00,207.0,WeatherDisplay:10.37,2013-03-09 21:07:00,
2013-03-09 16:12:00,56.6,32.5,30.27,SSE,153,4.6,4.6,40,0.00,BKN,,0.00,207.0,WeatherDisplay:10.37,2013-03-09 21:12:00,
2013-03-09 16:18:00,56.6,35.5,30.26,SSE,153,0.0,0.0,45,0.00,BKN,,0.00,197.0,WeatherDisplay:10.37,2013-03-09 21:18:00,
2013-03-09 16:23:00,56.7,33.8,30.26,SSE,153,4.6,4.6,42,0.00,BKN,,0.00,172.0,WeatherDisplay:10.37,2013-03-09 21:23:00,
2013-03-09 16:28:00,56.4,32.4,30.26,SSE,154,6.9,6.9,40,0.00,BKN,,0.00,146.0,WeatherDisplay:10.37,2013-03-09 21:28:00,
2013-03-09 16:33:00,56.3,35.8,30.26,SSE,154,5.8,5.8,46,0.00,BKN,,0.00,134.0,WeatherDisplay:10.37,2013-03-09 21:33:00,
2013-03-09 16:38:00,56.2,35.1,30.26,SSE,154,0.0,0.0,45,0.00,BKN,,0.00,116.0,WeatherDisplay:10.37,2013-03-09 21:38:00,
2013-03-09 16:43:00,56.2,32.8,30.26,SSE,154,0.0,0.0,41,0.00,BKN,,0.00,91.0,WeatherDisplay:10.37,2013-03-09 21:43:00,
2013-03-09 16:48:00,56.2,35.1,30.26,SSE,154,2.3,2.3,45,0.00,BKN,,0.00,74.0,WeatherDisplay:10.37,2013-03-09 21:48:00,
2013-03-09 16:53:00,56.1,33.3,30.26,SSE,154,0.0,0.0,42,0.00,BKN,,0.00,72.0,WeatherDisplay:10.37,2013-03-09 21:53:00,
2013-03-09 16:58:00,56.0,33.2,30.26,SSE,154,0.0,0.0,42,0.00,BKN,,0.00,72.0,WeatherDisplay:10.37,2013-03-09 21:58:00,
2013-03-09 17:03:00,56.0,33.8,30.26,SSE,154,3.5,3.5,43,0.00,BKN,,0.00,74.0,WeatherDisplay:10.37,2013-03-09 22:03:00,
2013-03-09 17:08:00,55.9,32.5,30.27,SSE,154,0.0,0.0,41,0.00,BKN,,0.00,74.0,WeatherDisplay:10.37,2013-03-09 22:08:00,
2013-03-09 17:13:00,55.9,33.7,30.27,SSE,154,0.0,0.0,43,0.00,BKN,,0.00,72.0,WeatherDisplay:10.37,2013-03-09 22:13:00,
2013-03-09 17:18:00,55.9,33.1,30.27,SSE,154,0.0,0.0,42,0.00,BKN,,0.00,70.0,WeatherDisplay:10.37,2013-03-09 22:18:00,
2013-03-09 17:23:00,55.9,32.5,30.27,SSE,154,0.0,0.0,41,0.00,BKN,,0.00,67.0,WeatherDisplay:10.37,2013-03-09 22:23:00,
2013-03-09 17:28:00,55.9,34.8,30.27,SSE,154,0.0,0.0,45,0.00,BKN,,0.00,63.0,WeatherDisplay:10.37,2013-03-09 22:28:00,
2013-03-09 17:33:00,55.9,33.7,30.26,SSE,154,0.0,0.0,43,0.00,BKN,,0.00,62.0,WeatherDisplay:10.37,2013-03-09 22:33:00,
2013-03-09 17:38:00,55.9,33.1,30.27,SSE,154,0.0,0.0,42,0.00,BKN,,0.00,56.0,WeatherDisplay:10.37,2013-03-09 22:38:00,
2013-03-09 17:43:00,55.9,33.1,30.27,SSE,154,0.0,0.0,42,0.00,BKN,,0.00,54.0,WeatherDisplay:10.37,2013-03-09 22:43:00,
2013-03-09 17:48:00,55.9,33.7,30.27,SSE,154,0.0,0.0,43,0.00,BKN,,0.00,49.0,WeatherDisplay:10.37,2013-03-09 22:48:00,
2013-03-09 17:53:00,55.9,34.3,30.27,SSE,154,0.0,0.0,44,0.00,CLR,,0.00,40.0,WeatherDisplay:10.37,2013-03-09 22:53:00,
2013-03-09 17:58:00,55.8,34.8,30.27,SSE,154,0.0,0.0,45,0.00,CLR,,0.00,35.0,WeatherDisplay:10.37,2013-03-09 22:58:00,
2013-03-09 18:03:00,55.7,34.1,30.27,SSE,154,0.0,0.0,44,0.00,CLR,,0.00,30.0,WeatherDisplay:10.37,2013-03-09 23:03:00,
2013-03-09 18:08:00,55.6,33.4,30.27,SSE,154,0.0,0.0,43,0.00,CLR,,0.00,25.0,WeatherDisplay:10.37,2013-03-09 23:08:00,
2013-03-09 18:13:00,55.6,34.0,30.27,SSE,154,0.0,0.0,44,0.00,CLR,,0.00,19.0,WeatherDisplay:10.37,2013-03-09 23:13:00,
2013-03-09 18:18:00,55.5,34.5,30.27,SSE,154,0.0,0.0,45,0.00,CLR,,0.00,14.0,WeatherDisplay:10.37,2013-03-09 23:18:00,
2013-03-09 18:23:00,55.3,34.3,30.27,SSE,154,0.0,0.0,45,0.00,CLR,,0.00,9.0,WeatherDisplay:10.37,2013-03-09 23:23:00,
2013-03-09 18:28:00,55.1,34.7,30.28,SSE,154,0.0,0.0,46,0.00,CLR,,0.00,7.0,WeatherDisplay:10.37,2013-03-09 23:28:00,
2013-03-09 18:33:00,55.0,34.6,30.28,SSE,154,0.0,0.0,46,0.00,CLR,,0.00,0.0,WeatherDisplay:10.37,2013-03-09 23:33:00,
2013-03-09 18:38:00,54.8,34.4,30.28,SSE,154,0.0,0.0,46,0.00,CLR,,0.00,0.0,WeatherDisplay:10.37,2013-03-09 23:38:00,
2013-03-09 18:43:00,54.7,34.8,30.28,SSE,154,0.0,0.0,47,0.00,CLR,,0.00,0.0,WeatherDisplay:10.37,2013-03-09 23:43:00,
2013-03-09 18:48:00,54.6,35.3,30.28,SSE,154,0.0,0.0,48,0.00,CLR,,0.00,0.0,WeatherDisplay:10.37,2013-03-09 23:48:00,
2013-03-09 18:53:00,54.4,35.6,30.27,SSE,154,0.0,0.0,49,0.00,CLR,,0.00,0.0,WeatherDisplay:10.37,2013-03-09 23:53:00,
2013-03-09 18:58:00,54.2,35.9,30.27,SSE,154,0.0,0.0,50,0.00,CLR,,0.00,0.0,WeatherDisplay:10.37,2013-03-09 23:58:00,
2013-03-09 19:03:00,54.0,37.2,30.28,SSE,154,0.0,0.0,53,0.00,CLR,,0.00,0.0,WeatherDisplay:10.37,2013-03-10 00:03:00,
2013-03-09 19:08:00,53.8,37.1,30.28,SSE,154,0.0,0.0,53,0.00,CLR,,0.00,0.0,WeatherDisplay:10.37,2013-03-10 00:08:00,
2013-03-09 19:13:00,53.6,36.9,30.28,SSE,154,0.0,0.0,53,0.00,CLR,,0.00,0.0,WeatherDisplay:10.37,2013-03-10 00:13:00,
2013-03-09 19:18:00,53.5,37.3,30.28,SSE,154,0.0,0.0,54,0.00,CLR,,0.00,0.0,WeatherDisplay:10.37,2013-03-10 00:18:00,
2013-03-09 19:23:00,53.3,37.5,30.28,SSE,154,0.0,0.0,55,0.00,CLR,,0.00,0.0,WeatherDisplay:10.37,2013-03-10 00:23:00,
2013-03-09 19:28:00,53.1,38.3,30.28,SSE,154,0.0,0.0,57,0.00,CLR,,0.00,0.0,WeatherDisplay:10.37,2013-03-10 00:28:00,
2013-03-09 19:33:00,52.9,37.6,30.28,SSE,154,3.5,3.5,56,0.00,CLR,,0.00,0.0,WeatherDisplay:10.37,2013-03-10 00:33:00,
2013-03-09 19:38:00,52.6,37.3,30.28,SSE,154,0.0,0.0,56,0.00,CLR,,0.00,0.0,WeatherDisplay:10.37,2013-03-10 00:38:00,
2013-03-09 19:43:00,52.5,36.8,30.28,SSE,154,2.3,2.3,55,0.00,CLR,,0.00,0.0,WeatherDisplay:10.37,2013-03-10 00:43:00,
2013-03-09 19:48:00,52.4,36.2,30.28,SSE,154,0.0,0.0,54,0.00,CLR,,0.00,0.0,WeatherDisplay:10.37,2013-03-10 00:48:00,
2013-03-09 19:53:00,52.3,36.1,30.28,SSE,154,3.5,3.5,54,0.00,CLR,,0.00,0.0,WeatherDisplay:10.37,2013-03-10 00:53:00,
2013-03-09 19:58:00,52.2,36.0,30.28,SSE,154,3.5,3.5,54,0.00,CLR,,0.00,0.0,WeatherDisplay:10.37,2013-03-10 00:58:00,
2013-03-09 20:03:00,52.1,36.4,30.27,SSE,153,4.6,4.6,55,0.00,CLR,,0.00,0.0,WeatherDisplay:10.37,2013-03-10 01:03:00,
2013-03-09 20:08:00,51.9,37.1,30.27,SSE,152,4.0,4.0,57,0.00,CLR,,0.00,0.0,WeatherDisplay:10.37,2013-03-10 01:08:00,
2013-03-09 20:13:00,51.7,36.9,30.28,SSE,152,3.5,3.5,57,0.00,CLR,,0.00,0.0,WeatherDisplay:10.37,2013-03-10 01:13:00,
2013-03-09 20:18:00,51.4,36.2,30.28,SSE,152,0.0,0.0,56,0.00,CLR,,0.00,0.0,WeatherDisplay:10.37,2013-03-10 01:18:00,
2013-03-09 20:23:00,51.3,35.7,30.28,SSE,152,0.0,0.0,55,0.00,CLR,,0.00,0.0,WeatherDisplay:10.37,2013-03-10 01:23:00,
2013-03-09 20:28:00,51.1,35.0,30.28,SSE,152,0.0,0.0,54,0.00,CLR,,0.00,0.0,WeatherDisplay:10.37,2013-03-10 01:28:00,
2013-03-09 20:33:00,51.1,35.0,30.28,SSE,152,0.0,0.0,54,0.00,CLR,,0.00,0.0,WeatherDisplay:10.37,2013-03-10 01:33:00,
2013-03-09 20:38:00,51.2,34.6,30.28,SSE,151,3.5,3.5,53,0.00,CLR,,0.00,0.0,WeatherDisplay:10.37,2013-03-10 01:38:00,
2013-03-09 20:43:00,51.3,35.2,30.28,SSE,151,1.2,0.0,54,0.00,CLR,,0.00,0.0,WeatherDisplay:10.37,2013-03-10 01:43:00,
2013-03-09 20:48:00,51.2,35.6,30.28,SSE,151,3.5,3.5,55,0.00,CLR,,0.00,0.0,WeatherDisplay:10.37,2013-03-10 01:48:00,
2013-03-09 20:53:00,51.2,35.1,30.28,SSE,150,3.5,3.5,54,0.00,CLR,,0.00,0.0,WeatherDisplay:10.37,2013-03-10 01:53:00,
2013-03-09 20:58:00,51.2,35.1,30.28,SSE,150,4.0,4.0,54,0.00,CLR,,0.00,0.0,WeatherDisplay:10.37,2013-03-10 01:58:00,
2013-03-09 21:03:00,51.1,35.5,30.28,SSE,150,0.0,0.0,55,0.00,CLR,,0.00,0.0,WeatherDisplay:10.37,2013-03-10 02:03:00,
2013-03-09 21:08:00,51.1,35.0,30.28,SSE,150,2.3,2.3,54,0.00,CLR,,0.00,0.0,WeatherDisplay:10.37,2013-03-10 02:08:00,
2013-03-09 21:13:00,51.1,35.0,30.28,SSE,150,3.5,3.5,54,0.00,CLR,,0.00,0.0,WeatherDisplay:10.37,2013-03-10 02:13:00,
2013-03-09 21:18:00,51.2,34.6,30.28,SSE,149,3.5,3.5,53,0.00,CLR,,0.00,0.0,WeatherDisplay:10.37,2013-03-10 02:18:00,
2013-03-09 21:23:00,51.2,34.6,30.28,SSE,148,4.0,4.0,53,0.00,CLR,,0.00,0.0,WeatherDisplay:10.37,2013-03-10 02:23:00,
2013-03-09 21:28:00,51.3,34.7,30.28,SE,125,4.6,4.6,53,0.00,CLR,,0.00,0.0,WeatherDisplay:10.37,2013-03-10 02:28:00,
2013-03-09 21:33:00,51.3,34.7,30.28,ESE,117,4.0,4.0,53,0.00,CLR,,0.00,0.0,WeatherDisplay:10.37,2013-03-10 02:33:00,
2013-03-09 21:38:00,51.4,34.8,30.28,ESE,116,3.5,3.5,53,0.00,CLR,,0.00,0.0,WeatherDisplay:10.37,2013-03-10 02:38:00,
2013-03-09 21:43:00,51.4,34.8,30.28,ESE,110,4.0,4.0,53,0.00,CLR,,0.00,0.0,WeatherDisplay:10.37,2013-03-10 02:43:00,
2013-03-09 21:48:00,51.3,34.7,30.27,ESE,105,5.8,5.8,53,0.00,CLR,,0.00,0.0,WeatherDisplay:10.37,2013-03-10 02:48:00,
2013-03-09 21:53:00,51.3,34.7,30.28,East,95,6.9,6.9,53,0.00,CLR,,0.00,0.0,WeatherDisplay:10.37,2013-03-10 02:53:00,
2013-03-09 21:58:00,51.2,34.6,30.28,East,91,2.3,0.0,53,0.00,CLR,,0.00,0.0,WeatherDisplay:10.37,2013-03-10 02:58:00,
2013-03-09 22:03:00,51.2,34.6,30.28,East,90,5.8,5.8,53,0.00,CLR,,0.00,0.0,WeatherDisplay:10.37,2013-03-10 03:03:00,
2013-03-09 22:08:00,51.1,34.5,30.28,East,90,5.8,5.8,53,0.00,CLR,,0.00,0.0,WeatherDisplay:10.37,2013-03-10 03:08:00,
2013-03-09 22:13:00,51.0,34.5,30.28,East,85,5.8,5.8,53,0.00,CLR,,0.00,0.0,WeatherDisplay:10.37,2013-03-10 03:13:00,
2013-03-09 22:18:00,51.0,34.5,30.28,East,83,3.5,3.5,53,0.00,CLR,,0.00,0.0,WeatherDisplay:10.37,2013-03-10 03:18:00,
2013-03-09 22:23:00,50.9,34.4,30.28,East,83,3.0,3.0,53,0.00,CLR,,0.00,0.0,WeatherDisplay:10.37,2013-03-10 03:23:00,
2013-03-09 22:28:00,50.8,34.3,30.28,East,83,3.0,3.0,53,0.00,CLR,,0.00,0.0,WeatherDisplay:10.37,2013-03-10 03:28:00,
2013-03-09 22:33:00,50.7,34.6,30.28,East,83,3.5,3.5,54,0.00,CLR,,0.00,0.0,WeatherDisplay:10.37,2013-03-10 03:33:00,
2013-03-09 22:39:00,50.6,34.6,30.28,East,83,4.0,4.0,54,0.00,CLR,,0.00,0.0,WeatherDisplay:10.37,2013-03-10 03:39:00,
2013-03-09 22:44:00,50.6,34.6,30.28,East,83,3.5,3.5,54,0.00,CLR,,0.00,0.0,WeatherDisplay:10.37,2013-03-10 03:44:00,
2013-03-09 22:49:00,50.5,34.5,30.28,East,83,3.5,0.0,54,0.00,CLR,,0.00,0.0,WeatherDisplay:10.37,2013-03-10 03:49:00,
2013-03-09 22:54:00,50.4,34.8,30.28,East,83,3.0,3.0,55,0.00,CLR,,0.00,0.0,WeatherDisplay:10.37,2013-03-10 03:54:00,
2013-03-09 22:59:00,50.2,34.6,30.28,East,83,3.5,3.5,55,0.00,CLR,,0.00,0.0,WeatherDisplay:10.37,2013-03-10 03:59:00,
2013-03-09 23:04:00,50.1,34.1,30.28,East,83,4.6,4.6,54,0.00,CLR,,0.00,0.0,WeatherDisplay:10.37,2013-03-10 04:04:00,
2013-03-09 23:09:00,50.0,34.5,30.28,East,84,5.0,5.0,55,0.00,CLR,,0.00,0.0,WeatherDisplay:10.37,2013-03-10 04:09:00,
2013-03-09 23:14:00,49.9,33.9,30.27,East,84,3.5,3.5,54,0.00,CLR,,0.00,0.0,WeatherDisplay:10.37,2013-03-10 04:14:00,
2013-03-09 23:19:00,49.9,34.4,30.27,East,84,5.8,5.8,55,0.00,CLR,,0.00,0.0,WeatherDisplay:10.37,2013-03-10 04:19:00,
2013-03-09 23:24:00,49.8,34.3,30.27,East,84,5.8,5.8,55,0.00,CLR,,0.00,0.0,WeatherDisplay:10.37,2013-03-10 04:24:00,
2013-03-09 23:29:00,49.7,34.2,30.27,East,83,5.0,5.0,55,0.00,CLR,,0.00,0.0,WeatherDisplay:10.37,2013-03-10 04:29:00,
2013-03-09 23:34:00,49.7,34.2,30.28,East,83,5.8,5.8,55,0.00,CLR,,0.00,0.0,WeatherDisplay:10.37,2013-03-10 04:34:00,
2013-03-09 23:39:00,49.7,34.2,30.27,East,82,6.9,6.9,55,0.00,CLR,,0.00,0.0,WeatherDisplay:10.37,2013-03-10 04:39:00,
2013-03-09 23:44:00,49.8,34.3,30.27,East,81,3.5,3.5,55,0.00,CLR,,0.00,0.0,WeatherDisplay:10.37,2013-03-10 04:44:00,
2013-03-09 23:49:00,49.9,34.4,30.27,East,81,6.9,6.9,55,0.00,CLR,,0.00,0.0,WeatherDisplay:10.37,2013-03-10 04:49:00,
2013-03-09 23:54:00,49.9,34.8,30.27,East,81,5.0,5.0,56,0.00,CLR,,0.00,0.0,WeatherDisplay:10.37,2013-03-10 04:54:00,
2013-03-09 23:59:00,49.8,34.3,30.27,ENE,76,5.8,5.8,55,0.00,CLR,,0.00,0.0,WeatherDisplay:10.37,2013-03-10 04:59:00,